Time;durP1;ratioP1;P1;durP2;ratioP2;P2;SDS_P1;SDS_P2;PMS_P1;PMS_P2;Temp;Humidity;BMP_temperature;BMP_pressure;BME280_temperature;BME280_humidity;BME280_pressure;Samples;Min_cycle;Max_cycle;Signal;HPM_P1;HPM_P2
2022/11/20 00:01:30;;;;;;;27.65;16.77;;;4.30;1.00;;;;;;5088436;28;20315;-84
2022/11/20 00:04:36;;;;;;;28.03;16.37;;;4.30;1.00;;;;;;5073766;28;20638;-84
2022/11/20 00:07:05;;;;;;;28.47;17.63;;;4.30;1.00;;;;;;5079935;28;20225;-85
2022/11/20 00:09:30;;;;;;;27.48;16.10;;;4.20;1.00;;;;;;5094994;28;20413;-87
2022/11/20 00:15:25;;;;;;;25.73;15.82;;;4.30;1.00;;;;;;5076050;28;20205;-86
2022/11/20 00:21:17;;;;;;;28.03;17.00;;;4.30;1.00;;;;;;5075268;28;20416;-87
2022/11/20 00:23:43;;;;;;;27.17;17.10;;;4.20;1.00;;;;;;5074277;28;20421;-84
2022/11/20 00:26:26;;;;;;;28.23;16.80;;;4.30;1.00;;;;;;5080170;28;20191;-83
2022/11/20 00:32:48;;;;;;;26.38;16.15;;;4.30;1.00;;;;;;5087994;28;20722;-84
2022/11/20 00:35:19;;;;;;;27.50;16.30;;;4.30;1.00;;;;;;5079902;28;20289;-84
2022/11/20 00:38:30;;;;;;;25.17;16.10;;;4.30;1.00;;;;;;5079994;28;20189;-87
2022/11/20 00:44:37;;;;;;;26.73;16.50;;;4.30;1.00;;;;;;5094650;28;20677;-87
2022/11/20 00:50:24;;;;;;;27.85;16.95;;;4.30;1.00;;;;;;5091539;28;20177;-86
2022/11/20 00:52:50;;;;;;;28.47;17.13;;;4.30;1.00;;;;;;5094034;28;20175;-85
2022/11/20 00:58:45;;;;;;;29.50;17.20;;;4.30;1.00;;;;;;5084398;28;20189;-84
2022/11/20 01:01:42;;;;;;;25.20;15.73;;;4.30;1.00;;;;;;5072724;28;20167;-84
2022/11/20 01:07:31;;;;;;;26.67;16.83;;;4.30;1.00;;;;;;5082150;28;20353;-84
2022/11/20 01:10:18;;;;;;;26.05;16.20;;;4.30;1.00;;;;;;5073973;28;20225;-85
2022/11/20 01:19:28;;;;;;;26.88;17.13;;;4.20;1.00;;;;;;5087824;28;20200;-84
2022/11/20 01:32:36;;;;;;;29.02;17.50;;;4.10;1.00;;;;;;5093607;28;20204;-84
2022/11/20 01:38:24;;;;;;;30.02;17.65;;;4.10;1.00;;;;;;5084412;28;20223;-85
2022/11/20 01:50:56;;;;;;;33.63;18.60;;;4.00;1.00;;;;;;5081642;28;20186;-84
2022/11/20 01:53:49;;;;;;;31.48;19.25;;;4.10;1.00;;;;;;5092336;28;20182;-85
2022/11/20 01:56:15;;;;;;;29.08;17.17;;;4.10;1.00;;;;;;5081676;28;20572;-84
2022/11/20 01:59:24;;;;;;;33.15;19.23;;;4.10;1.00;;;;;;5078180;28;20167;-84
2022/11/20 02:01:50;;;;;;;28.40;17.17;;;4.10;1.00;;;;;;5075750;28;20267;-84
2022/11/20 02:04:25;;;;;;;29.83;16.43;;;4.00;1.00;;;;;;5072102;28;20211;-84
2022/11/20 02:06:57;;;;;;;31.27;18.75;;;3.90;1.00;;;;;;5084129;28;20467;-85
2022/11/20 02:09:23;;;;;;;31.73;18.00;;;4.00;1.00;;;;;;5072909;28;20261;-87
2022/11/20 02:12:02;;;;;;;29.77;16.87;;;4.00;1.00;;;;;;5075043;28;20191;-87
2022/11/20 02:14:31;;;;;;;32.90;19.10;;;4.00;1.00;;;;;;5087337;28;20196;-87
2022/11/20 02:20:19;;;;;;;30.75;18.80;;;4.00;1.00;;;;;;5083774;28;20216;-87
2022/11/20 02:26:28;;;;;;;32.53;17.38;;;4.00;1.00;;;;;;5081224;28;20194;-85
2022/11/20 02:29:24;;;;;;;29.75;17.75;;;4.00;1.00;;;;;;5072484;28;20250;-85
2022/11/20 02:38:33;;;;;;;31.27;18.48;;;4.00;1.00;;;;;;5077119;28;20197;-87
2022/11/20 02:44:21;;;;;;;30.10;17.60;;;3.90;1.00;;;;;;5084313;28;20239;-88
2022/11/20 02:50:09;;;;;;;33.55;18.40;;;3.90;1.00;;;;;;5090455;28;20205;-87
2022/11/20 02:55:57;;;;;;;29.30;17.60;;;3.90;1.00;;;;;;5076548;28;20503;-87
2022/11/20 03:01:49;;;;;;;30.40;18.00;;;3.90;1.00;;;;;;5079739;28;20244;-87
2022/11/20 03:07:37;;;;;;;33.47;19.42;;;4.00;1.00;;;;;;5076768;28;20197;-87
2022/11/20 03:10:19;;;;;;;29.80;16.27;;;4.00;1.00;;;;;;5079460;28;20187;-87
2022/11/20 03:16:13;;;;;;;33.38;18.70;;;4.00;1.00;;;;;;5076982;28;20264;-87
2022/11/20 03:18:40;;;;;;;35.67;19.17;;;4.00;1.00;;;;;;5077905;28;20193;-87
2022/11/20 03:27:50;;;;;;;35.70;18.90;;;4.10;1.00;;;;;;5075648;28;20200;-85
2022/11/20 03:30:15;;;;;;;37.17;20.30;;;4.00;1.00;;;;;;5086416;28;20166;-85
2022/11/20 03:39:18;;;;;;;34.00;20.35;;;4.00;1.00;;;;;;5076477;28;20189;-85
2022/11/20 03:41:49;;;;;;;39.80;19.10;;;4.10;1.00;;;;;;5087903;28;20175;-84
2022/11/20 03:44:14;;;;;;;37.10;19.95;;;4.10;1.00;;;;;;5079756;28;20647;-85
2022/11/20 03:46:49;;;;;;;34.63;18.97;;;4.10;1.00;;;;;;5078332;28;20210;-85
2022/11/20 03:59:21;;;;;;;29.87;18.03;;;4.10;1.00;;;;;;5091643;28;20182;-85
2022/11/20 04:02:24;;;;;;;30.23;17.73;;;4.10;1.00;;;;;;5076701;28;20430;-85
2022/11/20 04:04:50;;;;;;;32.30;17.90;;;4.10;1.00;;;;;;5074610;28;20221;-85
2022/11/20 04:07:16;;;;;;;31.60;17.97;;;4.10;1.00;;;;;;5079856;28;20187;-85
2022/11/20 04:09:41;;;;;;;28.73;17.07;;;4.00;1.00;;;;;;5089183;28;20217;-87
2022/11/20 04:18:55;;;;;;;34.38;18.80;;;3.90;1.00;;;;;;5082542;28;20189;-87
2022/11/20 04:22:13;;;;;;;35.60;19.15;;;4.00;1.00;;;;;;5088048;28;20185;-87
2022/11/20 04:28:00;;;;;;;36.70;18.45;;;4.00;1.00;;;;;;5085346;28;20190;-88
2022/11/20 04:31:13;;;;;;;33.40;18.30;;;4.00;1.00;;;;;;5093446;28;20167;-87
2022/11/20 04:37:19;;;;;;;33.35;19.20;;;4.00;1.00;;;;;;5076721;28;20444;-88
2022/11/20 04:40:19;;;;;;;33.40;19.20;;;3.90;1.00;;;;;;5078266;28;20179;-85
2022/11/20 04:43:30;;;;;;;36.72;18.95;;;3.90;1.00;;;;;;5086546;28;20166;-84
2022/11/20 04:49:18;;;;;;;35.17;19.40;;;3.90;1.00;;;;;;5093831;28;20182;-84
2022/11/20 04:55:06;;;;;;;40.47;20.50;;;3.90;1.00;;;;;;5090386;28;20264;-87
2022/11/20 05:04:37;;;;;;;45.95;22.60;;;3.90;1.00;;;;;;5085450;28;20675;-87
2022/11/20 05:07:02;;;;;;;45.53;20.83;;;3.80;1.00;;;;;;5088271;28;20716;-87
2022/11/20 05:09:28;;;;;;;40.77;20.67;;;3.80;1.00;;;;;;5090341;28;20210;-87
2022/11/20 05:15:16;;;;;;;40.50;19.67;;;3.90;1.00;;;;;;5081879;28;20217;-88
2022/11/20 05:18:01;;;;;;;41.00;20.57;;;3.90;1.00;;;;;;5086882;28;20178;-88
2022/11/20 05:24:13;;;;;;;42.50;22.00;;;3.80;1.00;;;;;;5080680;28;20253;-87
2022/11/20 05:33:25;;;;;;;47.97;22.15;;;3.90;1.00;;;;;;5076482;28;20198;-87
2022/11/20 05:45:56;;;;;;;48.58;21.95;;;3.90;1.00;;;;;;5073965;28;20225;-87
2022/11/20 05:51:49;;;;;;;47.08;22.58;;;3.90;1.00;;;;;;5090802;28;20273;-87
2022/11/20 05:57:49;;;;;;;47.80;21.23;;;3.90;1.00;;;;;;5078468;28;20712;-87
2022/11/20 06:00:19;;;;;;;49.60;23.45;;;3.90;1.00;;;;;;5072830;28;20184;-86
2022/11/20 06:06:31;;;;;;;46.92;23.30;;;4.00;1.00;;;;;;5082220;28;20218;-87
2022/11/20 06:08:58;;;;;;;48.40;22.67;;;4.00;1.00;;;;;;5087498;28;20227;-87
2022/11/20 06:14:49;;;;;;;42.97;21.45;;;4.00;1.00;;;;;;5077000;28;20185;-85
2022/11/20 06:17:25;;;;;;;49.40;22.15;;;4.00;1.00;;;;;;5090060;28;20657;-84
2022/11/20 06:20:13;;;;;;;56.25;22.48;;;4.00;1.00;;;;;;5079529;28;20206;-79
2022/11/20 06:26:08;;;;;;;48.40;21.77;;;4.00;1.00;;;;;;5091957;28;20228;-84
2022/11/20 06:31:56;;;;;;;52.20;23.42;;;4.00;1.00;;;;;;5077020;28;20194;-85
2022/11/20 06:34:55;;;;;;;49.67;22.00;;;4.00;1.00;;;;;;5089296;28;20654;-86
2022/11/20 06:38:13;;;;;;;50.00;22.60;;;4.00;1.00;;;;;;5083840;28;20182;-85
2022/11/20 06:40:43;;;;;;;48.70;21.70;;;3.90;1.00;;;;;;5089379;28;20640;-88
2022/11/20 06:43:13;;;;;;;49.80;21.63;;;4.00;1.00;;;;;;5101115;28;20182;-85
2022/11/20 06:45:53;;;;;;;46.88;22.05;;;4.00;1.00;;;;;;5080051;28;20193;-87
2022/11/20 06:48:37;;;;;;;45.72;21.10;;;4.00;1.00;;;;;;5082121;28;20299;-92
2022/11/20 06:51:55;;;;;;;42.78;20.10;;;4.00;1.00;;;;;;5075723;28;20191;-86
2022/11/20 06:54:26;;;;;;;42.95;21.10;;;4.00;1.00;;;;;;5075738;28;20258;-86
2022/11/20 06:57:31;;;;;;;48.33;20.98;;;4.10;1.00;;;;;;5089088;28;20203;-82
2022/11/20 07:00:01;;;;;;;42.07;20.60;;;4.10;1.00;;;;;;5089014;28;20178;-82
2022/11/20 07:02:31;;;;;;;44.97;22.40;;;4.20;1.00;;;;;;5083426;28;20420;-83
2022/11/20 07:05:19;;;;;;;41.83;20.13;;;4.20;1.00;;;;;;5074893;28;20425;-84
2022/11/20 07:08:37;;;;;;;38.65;19.70;;;4.20;1.00;;;;;;5075860;28;20476;-84
2022/11/20 07:11:13;;;;;;;39.22;19.02;;;4.20;1.00;;;;;;5090444;28;20174;-85
2022/11/20 07:13:57;;;;;;;48.00;20.95;;;4.10;1.00;;;;;;5074812;28;20182;-84
2022/11/20 07:16:43;;;;;;;46.95;21.77;;;4.10;1.00;;;;;;5088354;28;20209;-84
2022/11/20 07:19:13;;;;;;;41.70;20.80;;;4.20;1.00;;;;;;5081125;28;20187;-84
2022/11/20 07:25:01;;;;;;;42.85;21.10;;;4.10;1.00;;;;;;5086242;28;20189;-86
2022/11/20 07:27:43;;;;;;;45.72;21.48;;;4.10;1.00;;;;;;5093594;28;20167;-86
2022/11/20 07:33:31;;;;;;;40.03;20.25;;;4.10;1.00;;;;;;5087493;28;20443;-82
2022/11/20 07:36:25;;;;;;;45.00;21.07;;;4.10;1.00;;;;;;5087912;28;20203;-85
2022/11/20 07:38:55;;;;;;;45.05;21.13;;;4.10;1.00;;;;;;5080882;28;20461;-84
2022/11/20 07:41:55;;;;;;;48.67;21.00;;;4.20;1.00;;;;;;5083793;28;20186;-85
2022/11/20 07:44:55;;;;;;;48.47;21.83;;;4.20;1.00;;;;;;5115298;27;20319;-87
2022/11/20 07:47:25;;;;;;;43.70;19.53;;;4.20;1.00;;;;;;5078485;28;20193;-87
2022/11/20 07:49:55;;;;;;;42.00;19.90;;;4.30;1.00;;;;;;5074685;28;20907;-87
2022/11/20 07:52:25;;;;;;;48.73;21.20;;;4.40;1.00;;;;;;5075187;28;20536;-87
2022/11/20 07:54:55;;;;;;;44.97;19.97;;;4.30;1.00;;;;;;5075583;28;20451;-88
2022/11/20 07:57:25;;;;;;;46.13;20.77;;;4.40;1.00;;;;;;5091089;28;20934;-85
2022/11/20 07:59:55;;;;;;;51.50;21.87;;;4.50;1.00;;;;;;5075474;28;20516;-85
2022/11/20 08:02:55;;;;;;;51.60;22.63;;;4.60;1.00;;;;;;5085650;28;20429;-84
2022/11/20 08:05:25;;;;;;;49.10;21.37;;;4.60;1.00;;;;;;5076751;28;20238;-83
2022/11/20 08:07:55;;;;;;;44.03;19.40;;;4.70;1.00;;;;;;5075142;28;21021;-81
2022/11/20 08:17:19;;;;;;;47.50;20.33;;;4.90;1.00;;;;;;5076348;28;20459;-87
2022/11/20 08:19:55;;;;;;;40.87;18.97;;;4.80;1.00;;;;;;5082369;28;20515;-88
2022/11/20 08:25:43;;;;;;;39.90;19.43;;;4.90;1.00;;;;;;5076326;28;20408;-88
2022/11/20 08:28:31;;;;;;;49.00;19.03;;;5.00;1.00;;;;;;5074217;28;20401;-84
2022/11/20 08:31:31;;;;;;;40.17;19.17;;;5.00;1.00;;;;;;5077996;28;20174;-84
2022/11/20 08:34:31;;;;;;;40.60;18.70;;;5.10;1.00;;;;;;5082074;28;20848;-85
2022/11/20 08:37:02;;;;;;;39.83;18.57;;;5.10;1.00;;;;;;5079102;28;20480;-85
2022/11/20 08:49:34;;;;;;;33.87;18.27;;;5.20;1.00;;;;;;5076292;28;20365;-87
2022/11/20 08:55:21;;;;;;;32.87;17.97;;;5.30;1.00;;;;;;5077315;28;20225;-87
2022/11/20 09:04:31;;;;;;;43.93;18.03;;;5.40;1.00;;;;;;5075100;28;20805;-84
2022/11/20 09:10:18;;;;;;;36.67;17.57;;;5.70;1.00;;;;;;5093761;28;20205;-81
2022/11/20 09:17:01;;;;;;;30.30;17.20;;;5.90;1.00;;;;;;5085714;28;20853;-87
2022/11/20 09:19:49;;;;;;;38.53;18.17;;;6.10;1.00;;;;;;5079033;28;20437;-87
2022/11/20 09:26:19;;;;;;;34.20;17.80;;;6.20;1.00;;;;;;5082634;28;20443;-88
2022/11/20 09:35:29;;;;;;;37.33;19.43;;;6.30;1.00;;;;;;5074473;28;20452;-85
2022/11/20 09:41:54;;;;;;;36.63;18.90;;;6.40;1.00;;;;;;5079002;28;20185;-86
2022/11/20 09:45:01;;;;;;;37.07;19.00;;;6.60;1.00;;;;;;5074509;28;20412;-89
2022/11/20 09:48:19;;;;;;;44.57;21.10;;;6.60;1.00;;;;;;5089931;28;20420;-85
2022/11/20 09:51:37;;;;;;;41.77;22.10;;;6.70;1.00;;;;;;5089404;28;20429;-85
2022/11/20 09:54:31;;;;;;;40.33;21.23;;;6.70;1.00;;;;;;5081252;28;20445;-91
2022/11/20 09:57:17;;;;;;;43.57;21.20;;;6.60;1.00;;;;;;5079031;28;20458;-92
2022/11/20 09:59:46;;;;;;;45.60;22.70;;;6.60;1.00;;;;;;5081096;28;20408;-86
2022/11/20 10:02:47;;;;;;;44.90;22.37;;;6.50;1.00;;;;;;5097716;28;20387;-82
2022/11/20 10:09:26;;;;;;;41.07;21.07;;;6.40;1.00;;;;;;5080650;28;20458;-84
2022/11/20 10:12:32;;;;;;;42.70;21.63;;;6.40;1.00;;;;;;5080183;28;20518;-84
2022/11/20 10:15:52;;;;;;;40.00;20.47;;;6.40;1.00;;;;;;5036158;28;20403;-88
2022/11/20 10:18:39;;;;;;;45.73;22.63;;;6.50;1.00;;;;;;4976271;28;20536;-83
2022/11/20 10:21:33;;;;;;;41.10;21.07;;;6.60;1.00;;;;;;4968801;28;20417;-85
2022/11/20 10:24:39;;;;;;;45.30;21.67;;;6.60;1.00;;;;;;4976146;28;20433;-85
2022/11/20 10:27:26;;;;;;;39.13;20.80;;;6.70;1.00;;;;;;4918979;29;20439;-84
2022/11/20 10:33:40;;;;;;;39.77;20.00;;;6.60;1.00;;;;;;4920829;29;20496;-82
2022/11/20 10:36:23;;;;;;;39.10;20.17;;;6.30;1.00;;;;;;4917697;29;20533;-82
2022/11/20 10:38:56;;;;;;;35.53;19.40;;;6.20;1.00;;;;;;4918739;29;20444;-81
2022/11/20 10:41:34;;;;;;;41.53;20.60;;;6.10;1.00;;;;;;4918115;29;20432;-81
2022/11/20 10:47:18;;;;;;;38.80;19.00;;;6.00;1.00;;;;;;4918170;29;20418;-81
2022/11/20 10:49:55;;;;;;;39.03;18.57;;;6.20;1.00;;;;;;4917685;29;20834;-81
2022/11/20 10:52:40;;;;;;;37.40;19.33;;;6.30;1.00;;;;;;4977400;28;20418;-81
2022/11/20 10:55:42;;;;;;;37.37;19.67;;;6.30;1.00;;;;;;5030103;28;20431;-81
2022/11/20 10:58:36;;;;;;;33.47;18.37;;;6.40;1.00;;;;;;5032810;28;20457;-82
2022/11/20 11:05:07;;;;;;;35.60;17.80;;;6.60;1.00;;;;;;5050594;28;20946;-87
2022/11/20 11:10:57;;;;;;;30.53;16.63;;;6.80;1.00;;;;;;5092009;28;20463;-87
2022/11/20 11:13:40;;;;;;;28.10;16.57;;;6.70;1.00;;;;;;5095691;28;20399;-87
2022/11/20 11:16:24;;;;;;;32.73;17.30;;;6.80;1.00;;;;;;5094889;28;20475;-82
2022/11/20 11:18:49;;;;;;;29.10;15.73;;;6.70;1.00;;;;;;5083956;28;20413;-82
2022/11/20 11:21:25;;;;;;;26.93;15.60;;;6.80;1.00;;;;;;5080114;28;20424;-82
2022/11/20 11:24:00;;;;;;;31.57;16.40;;;6.80;1.00;;;;;;5075382;28;20662;-82
2022/11/20 11:26:38;;;;;;;28.90;16.60;;;6.90;1.00;;;;;;5078297;28;20423;-82
2022/11/20 11:29:17;;;;;;;24.47;14.07;;;6.90;1.00;;;;;;5091797;28;20443;-81
2022/11/20 11:31:49;;;;;;;31.50;16.67;;;7.00;1.00;;;;;;5095776;28;20389;-82
2022/11/20 11:34:19;;;;;;;32.47;15.60;;;7.00;1.00;;;;;;5081896;28;20602;-81
2022/11/20 11:36:57;;;;;;;30.30;17.10;;;7.00;1.00;;;;;;5095386;28;21070;-82
2022/11/20 11:39:24;;;;;;;30.63;16.87;;;6.90;1.00;;;;;;5090215;28;20423;-81
2022/11/20 11:41:57;;;;;;;35.20;18.47;;;6.80;1.00;;;;;;5086172;28;20452;-81
2022/11/20 11:47:46;;;;;;;34.40;15.97;;;7.00;1.00;;;;;;5081762;28;20827;-82
2022/11/20 11:50:47;;;;;;;35.90;18.40;;;6.90;1.00;;;;;;5089515;28;20424;-81
2022/11/20 11:53:28;;;;;;;30.33;16.50;;;7.10;1.00;;;;;;5086380;28;20424;-82
2022/11/20 11:56:37;;;;;;;37.87;17.90;;;7.30;1.00;;;;;;5081438;28;20452;-82
2022/11/20 11:59:39;;;;;;;37.00;16.80;;;7.40;1.00;;;;;;5086848;28;20412;-82
2022/11/20 12:02:34;;;;;;;36.80;17.63;;;7.40;1.00;;;;;;5027798;28;20642;-81
2022/11/20 12:05:30;;;;;;;36.93;18.13;;;7.30;1.00;;;;;;5027721;28;20446;-82
2022/11/20 12:08:19;;;;;;;30.97;17.30;;;7.50;1.00;;;;;;4953868;28;20537;-81
2022/11/20 12:10:51;;;;;;;37.63;16.50;;;7.50;1.00;;;;;;4954325;29;20473;-82
2022/11/20 12:13:32;;;;;;;31.63;14.23;;;7.60;1.00;;;;;;4948252;28;20467;-81
2022/11/20 12:15:58;;;;;;;28.10;14.77;;;7.60;1.00;;;;;;4949908;29;20508;-82
2022/11/20 12:18:39;;;;;;;31.37;14.80;;;7.70;1.00;;;;;;4931126;28;20428;-82
2022/11/20 12:21:37;;;;;;;33.13;14.47;;;7.70;1.00;;;;;;4954366;29;20488;-82
2022/11/20 12:24:29;;;;;;;32.80;14.33;;;7.70;1.00;;;;;;4953625;28;20992;-81
2022/11/20 12:27:37;;;;;;;29.20;15.13;;;7.70;1.00;;;;;;4954652;29;20439;-90
2022/11/20 12:33:44;;;;;;;29.20;13.87;;;7.60;1.00;;;;;;4954766;28;20953;-87
2022/11/20 12:50:02;;;;;;;29.20;13.47;;;7.60;1.00;;;;;;5074461;28;20490;-90
2022/11/20 12:53:09;;;;;;;29.70;16.43;;;7.60;1.00;;;;;;5083749;28;20524;-86
2022/11/20 12:56:31;;;;;;;25.23;13.60;;;7.50;1.00;;;;;;5085634;28;20489;-87
2022/11/20 13:06:31;;;;;;;28.50;14.17;;;7.10;1.00;;;;;;5079039;28;20421;-86
2022/11/20 13:09:07;;;;;;;25.87;14.60;;;7.10;1.00;;;;;;5080020;28;20547;-85
2022/11/20 13:11:44;;;;;;;29.10;15.20;;;7.20;1.00;;;;;;5077438;28;20436;-86
2022/11/20 13:17:42;;;;;;;31.03;15.37;;;7.20;1.00;;;;;;5074757;28;20423;-83
2022/11/20 13:20:16;;;;;;;25.63;14.67;;;7.20;1.00;;;;;;5085709;28;20507;-82
2022/11/20 13:23:25;;;;;;;22.13;11.87;;;7.20;1.00;;;;;;5073243;28;20409;-83
2022/11/20 13:26:25;;;;;;;24.37;12.73;;;7.30;1.00;;;;;;5079098;28;20408;-83
2022/11/20 13:32:18;;;;;;;25.40;11.90;;;7.30;1.00;;;;;;5080754;28;20403;-84
2022/11/20 13:35:25;;;;;;;26.77;12.23;;;7.40;1.00;;;;;;5073517;28;20409;-84
2022/11/20 13:38:13;;;;;;;23.33;11.70;;;7.30;1.00;;;;;;5081326;28;20421;-83
2022/11/20 13:41:31;;;;;;;25.80;12.57;;;7.40;1.00;;;;;;5081179;28;20425;-82
2022/11/20 13:44:26;;;;;;;24.97;14.30;;;7.40;1.00;;;;;;5091208;28;20510;-82
2022/11/20 13:47:28;;;;;;;26.40;12.63;;;7.30;1.00;;;;;;5073860;28;20425;-86
2022/11/20 13:49:59;;;;;;;31.07;15.00;;;7.30;1.00;;;;;;5016152;28;20457;-85
2022/11/20 13:52:47;;;;;;;30.23;12.97;;;7.40;1.00;;;;;;5019160;28;20459;-85
2022/11/20 13:56:08;;;;;;;23.67;12.13;;;7.50;1.00;;;;;;5013338;28;20478;-85
2022/11/20 14:01:57;;;;;;;25.50;12.03;;;7.40;1.00;;;;;;5021599;28;20422;-83
2022/11/20 14:05:14;;;;;;;21.80;12.13;;;7.40;1.00;;;;;;5012967;28;20511;-83
2022/11/20 14:07:51;;;;;;;22.87;11.53;;;7.30;1.00;;;;;;5007471;28;20446;-83
2022/11/20 14:10:39;;;;;;;21.13;11.03;;;7.30;1.00;;;;;;5013941;28;20918;-83
2022/11/20 14:16:50;;;;;;;21.77;10.93;;;7.60;1.00;;;;;;5017928;28;20455;-86
2022/11/20 14:20:02;;;;;;;23.23;11.40;;;7.70;1.00;;;;;;5000284;28;20462;-86
2022/11/20 14:22:38;;;;;;;19.93;11.33;;;7.80;1.00;;;;;;5015468;28;20766;-85
2022/11/20 14:28:29;;;;;;;17.33;10.13;;;7.70;1.00;;;;;;5081621;28;20432;-86
2022/11/20 14:30:56;;;;;;;22.03;12.00;;;7.80;1.00;;;;;;5078798;28;20432;-83
2022/11/20 14:33:38;;;;;;;23.40;11.40;;;7.80;1.00;;;;;;5095368;28;20400;-83
2022/11/20 14:46:10;;;;;;;21.00;11.10;;;7.80;1.00;;;;;;5083893;28;20457;-87
2022/11/20 14:48:46;;;;;;;22.23;10.70;;;7.80;1.00;;;;;;5084123;28;20437;-88
2022/11/20 14:51:41;;;;;;;22.63;11.03;;;7.70;1.00;;;;;;5085457;28;20444;-80
2022/11/20 14:54:14;;;;;;;24.13;11.37;;;7.70;1.00;;;;;;5092540;28;20440;-74
2022/11/20 14:56:40;;;;;;;22.80;12.20;;;7.60;1.00;;;;;;5088292;28;20489;-73
2022/11/20 14:59:08;;;;;;;20.30;10.60;;;7.60;1.00;;;;;;5077524;28;20444;-73
2022/11/20 15:01:38;;;;;;;23.73;11.57;;;7.60;1.00;;;;;;5077605;28;20931;-73
2022/11/20 15:04:10;;;;;;;20.10;11.10;;;7.60;1.00;;;;;;5085834;28;20433;-73
2022/11/20 15:06:52;;;;;;;20.27;11.20;;;7.50;1.00;;;;;;5077959;28;20504;-73
2022/11/20 15:09:18;;;;;;;25.07;12.13;;;7.50;1.00;;;;;;5085083;28;20452;-73
2022/11/20 15:11:59;;;;;;;21.67;11.30;;;7.40;1.00;;;;;;5087926;28;20832;-73
2022/11/20 15:14:27;;;;;;;22.37;11.37;;;7.30;1.00;;;;;;5078330;28;20457;-73
2022/11/20 15:16:53;;;;;;;21.50;10.60;;;7.30;1.00;;;;;;5077307;28;20838;-73
2022/11/20 15:19:23;;;;;;;21.43;10.17;;;7.30;1.00;;;;;;5079614;28;20942;-74
2022/11/20 15:21:50;;;;;;;21.47;11.23;;;7.20;1.00;;;;;;5082144;28;20409;-74
2022/11/20 15:24:16;;;;;;;20.57;10.77;;;7.20;1.00;;;;;;5083485;28;20465;-74
2022/11/20 15:26:45;;;;;;;23.90;12.40;;;7.20;1.00;;;;;;5076352;28;20464;-75
2022/11/20 15:29:14;;;;;;;23.20;11.53;;;7.10;1.00;;;;;;5077381;28;20425;-75
2022/11/20 15:31:43;;;;;;;25.53;12.37;;;7.00;1.00;;;;;;5085716;28;20528;-73
2022/11/20 15:34:12;;;;;;;22.50;12.00;;;7.00;1.00;;;;;;5083214;28;20452;-73
2022/11/20 15:36:39;;;;;;;22.47;11.00;;;6.90;1.00;;;;;;5075182;28;20881;-73
2022/11/20 15:39:07;;;;;;;22.13;11.23;;;7.00;1.00;;;;;;5080893;28;20778;-73
2022/11/20 15:41:34;;;;;;;22.47;11.30;;;6.90;1.00;;;;;;5081381;28;20469;-73
2022/11/20 15:43:59;;;;;;;20.87;11.53;;;6.90;1.00;;;;;;5080304;28;20806;-73
2022/11/20 15:46:37;;;;;;;22.60;11.90;;;6.90;1.00;;;;;;5080742;28;20464;-73
2022/11/20 15:49:05;;;;;;;25.23;11.67;;;7.00;1.00;;;;;;5078743;28;20179;-73
2022/11/20 15:51:35;;;;;;;22.57;11.70;;;7.00;1.00;;;;;;5074229;28;20425;-73
2022/11/20 15:54:20;;;;;;;24.63;14.10;;;7.00;1.00;;;;;;5084653;28;20432;-80
2022/11/20 15:56:47;;;;;;;23.80;12.60;;;7.00;1.00;;;;;;5081161;28;20951;-74
2022/11/20 15:59:20;;;;;;;25.43;12.47;;;6.90;1.00;;;;;;5074989;28;20417;-75
2022/11/20 16:01:46;;;;;;;23.53;13.13;;;7.00;1.00;;;;;;5074274;28;20438;-75
2022/11/20 16:04:15;;;;;;;23.17;12.60;;;7.00;1.00;;;;;;5082834;28;20805;-74
2022/11/20 16:06:41;;;;;;;26.63;12.50;;;6.90;1.00;;;;;;5078575;28;20179;-74
2022/11/20 16:09:07;;;;;;;25.20;13.00;;;7.00;1.00;;;;;;5082030;28;20443;-75
2022/11/20 16:11:36;;;;;;;26.23;12.47;;;7.00;1.00;;;;;;5093722;28;20432;-76
2022/11/20 16:16:48;;;;;;;24.00;11.70;;;6.90;1.00;;;;;;5089377;28;20498;-76
2022/11/20 16:19:15;;;;;;;22.40;11.20;;;6.90;1.00;;;;;;5082518;28;20421;-74
2022/11/20 16:21:42;;;;;;;26.00;12.20;;;6.90;1.00;;;;;;5085295;28;20202;-74
2022/11/20 16:24:11;;;;;;;24.83;12.67;;;6.90;1.00;;;;;;5089418;28;20447;-73
2022/11/20 16:26:37;;;;;;;26.17;12.40;;;6.90;1.00;;;;;;5087154;28;20452;-74
2022/11/20 16:29:04;;;;;;;27.63;12.87;;;6.90;1.00;;;;;;5078210;28;20456;-74
2022/11/20 16:31:31;;;;;;;23.57;11.67;;;6.90;1.00;;;;;;5080407;28;20429;-74
2022/11/20 16:34:00;;;;;;;24.10;11.80;;;6.90;1.00;;;;;;5077275;28;20448;-74
2022/11/20 16:36:27;;;;;;;23.57;12.33;;;6.80;1.00;;;;;;5082951;28;20456;-73
2022/11/20 16:38:56;;;;;;;23.53;11.37;;;6.80;1.00;;;;;;5082522;28;20412;-73
2022/11/20 16:41:29;;;;;;;27.07;12.17;;;6.80;1.00;;;;;;5073856;28;20931;-73
2022/11/20 16:44:14;;;;;;;25.23;11.90;;;6.80;1.00;;;;;;5085619;28;20413;-75
2022/11/20 16:46:40;;;;;;;23.27;12.07;;;6.70;1.00;;;;;;5085485;28;20457;-75
2022/11/20 16:49:10;;;;;;;25.97;12.70;;;6.70;1.00;;;;;;5074462;28;20437;-75
2022/11/20 16:51:36;;;;;;;26.40;13.70;;;6.70;1.00;;;;;;5082220;28;20182;-74
2022/11/20 16:54:06;;;;;;;24.50;12.57;;;6.70;1.00;;;;;;5084712;28;20435;-74
2022/11/20 16:56:32;;;;;;;31.17;12.40;;;6.70;1.00;;;;;;5077722;28;20213;-74
2022/11/20 16:59:26;;;;;;;25.23;13.77;;;6.70;1.00;;;;;;5075034;28;20555;-82
2022/11/20 17:01:52;;;;;;;24.70;11.80;;;6.70;1.00;;;;;;5087985;28;20813;-74
2022/11/20 17:04:20;;;;;;;23.40;12.27;;;6.70;1.00;;;;;;5075554;28;20425;-75
2022/11/20 17:07:02;;;;;;;22.67;10.53;;;6.70;1.00;;;;;;5085460;28;20206;-76
2022/11/20 17:09:28;;;;;;;24.20;12.60;;;6.70;1.00;;;;;;5085068;28;20412;-76
2022/11/20 17:11:54;;;;;;;26.90;13.07;;;6.70;1.00;;;;;;5066312;28;20811;-74
2022/11/20 17:14:20;;;;;;;27.33;13.47;;;6.70;1.00;;;;;;5081632;28;20185;-74
2022/11/20 17:16:46;;;;;;;29.93;12.27;;;6.70;1.00;;;;;;5079184;28;20217;-74
2022/11/20 17:19:13;;;;;;;24.13;12.03;;;6.80;1.00;;;;;;5077526;28;20783;-74
2022/11/20 17:21:45;;;;;;;26.10;11.90;;;6.70;1.00;;;;;;5078735;28;20699;-74
2022/11/20 17:24:12;;;;;;;28.10;14.13;;;6.70;1.00;;;;;;5086858;28;20428;-74
2022/11/20 17:26:40;;;;;;;27.10;14.43;;;6.70;1.00;;;;;;5078632;28;20515;-74
2022/11/20 17:29:09;;;;;;;29.60;15.07;;;6.70;1.00;;;;;;5081352;28;20920;-74
2022/11/20 17:31:39;;;;;;;22.50;12.40;;;6.70;1.00;;;;;;5087178;28;20923;-74
2022/11/20 17:34:06;;;;;;;26.83;12.50;;;6.70;1.00;;;;;;5084103;28;20512;-73
2022/11/20 17:36:32;;;;;;;31.47;13.13;;;6.80;1.00;;;;;;5083087;28;20453;-74
2022/11/20 17:38:58;;;;;;;26.03;13.97;;;6.70;1.00;;;;;;5075570;28;20405;-74
2022/11/20 17:41:28;;;;;;;31.33;12.40;;;6.70;1.00;;;;;;5085692;28;20184;-74
2022/11/20 17:43:59;;;;;;;23.23;12.20;;;6.80;1.00;;;;;;5077869;28;20413;-74
2022/11/20 17:46:32;;;;;;;31.60;13.40;;;6.80;1.00;;;;;;5076808;28;20433;-74
2022/11/20 17:48:58;;;;;;;26.43;13.83;;;6.80;1.00;;;;;;5075770;28;20440;-74
2022/11/20 17:51:28;;;;;;;28.27;12.10;;;6.90;1.00;;;;;;5081080;28;20409;-74
2022/11/20 17:53:59;;;;;;;25.00;12.97;;;6.70;1.00;;;;;;5076259;28;20936;-73
2022/11/20 17:59:12;;;;;;;25.07;13.70;;;6.70;1.00;;;;;;5076769;28;20474;-73
2022/11/20 18:01:38;;;;;;;21.70;11.33;;;6.80;1.00;;;;;;5082664;28;20469;-73
2022/11/20 18:04:04;;;;;;;23.97;12.93;;;6.70;1.00;;;;;;5077102;28;20428;-73
2022/11/20 18:06:30;;;;;;;26.57;13.10;;;6.80;1.00;;;;;;5078291;28;20461;-73
2022/11/20 18:09:02;;;;;;;27.53;12.30;;;6.60;1.00;;;;;;5081783;28;20487;-74
2022/11/20 18:11:32;;;;;;;39.73;12.17;;;6.70;1.00;;;;;;5082828;28;20439;-73
2022/11/20 18:16:55;;;;;;;21.57;11.70;;;6.80;1.00;;;;;;5082578;28;20467;-73
2022/11/20 18:19:31;;;;;;;27.07;12.33;;;6.80;1.00;;;;;;5084301;28;20919;-79
2022/11/20 18:22:09;;;;;;;19.07;9.80;;;6.80;1.00;;;;;;5085284;28;20421;-79
2022/11/20 18:24:36;;;;;;;27.13;9.33;;;6.70;1.00;;;;;;5088236;28;20457;-79
2022/11/20 18:27:17;;;;;;;16.80;8.97;;;6.80;1.00;;;;;;5082751;28;20766;-81
2022/11/20 18:29:50;;;;;;;16.83;8.77;;;6.70;1.00;;;;;;5077066;28;20425;-81
2022/11/20 18:32:17;;;;;;;13.23;7.47;;;6.80;1.00;;;;;;5084760;28;20907;-81
2022/11/20 18:34:44;;;;;;;12.23;6.87;;;6.90;1.00;;;;;;5084375;28;20417;-81
2022/11/20 18:37:15;;;;;;;15.17;6.10;;;6.90;1.00;;;;;;5080672;28;20452;-81
2022/11/20 18:39:44;;;;;;;11.60;5.47;;;6.90;1.00;;;;;;5076225;28;20928;-80
2022/11/20 18:45:01;;;;;;;7.53;4.93;;;6.90;1.00;;;;;;5083693;28;20497;-82
2022/11/20 18:50:48;;;;;;;9.33;4.30;;;6.90;5.50;;;;;;5079898;28;20388;-86
2022/11/20 18:56:36;;;;;;;7.03;3.67;;;7.00;6.80;;;;;;5079227;28;20872;-84
2022/11/20 18:59:33;;;;;;;6.57;4.20;;;7.00;8.50;;;;;;5079037;28;20424;-83
2022/11/20 19:05:38;;;;;;;3.03;2.70;;;7.00;7.50;;;;;;5093484;28;20414;-84
2022/11/20 19:11:26;;;;;;;7.30;3.40;;;6.90;14.60;;;;;;5090526;28;20422;-84
2022/11/20 19:14:08;;;;;;;5.33;2.77;;;7.00;15.00;;;;;;5080889;28;20433;-83
2022/11/20 19:16:47;;;;;;;5.37;3.40;;;6.90;16.00;;;;;;5078478;28;20210;-81
2022/11/20 19:19:16;;;;;;;4.63;2.73;;;7.00;16.60;;;;;;5072676;28;20437;-82
2022/11/20 19:21:44;;;;;;;7.50;2.80;;;7.00;16.40;;;;;;5077312;28;20432;-84